Time;durP1;ratioP1;P1;durP2;ratioP2;P2;SDS_P1;SDS_P2;PMS_P1;PMS_P2;Temp;Humidity;BMP_temperature;BMP_pressure;BME280_temperature;BME280_humidity;BME280_pressure;Samples;Min_cycle;Max_cycle;Signal;HPM_P1;HPM_P2
2021/09/17 00:00:39;;;;;;;10.60;6.72;;;17.60;99.90;;;;;;4172826;28;20381;-73
2021/09/17 00:02:40;;;;;;;8.27;6.13;;;17.60;99.90;;;;;;4171332;28;20052;-73
2021/09/17 00:04:40;;;;;;;7.97;6.47;;;17.60;99.90;;;;;;4171771;28;20123;-73
2021/09/17 00:06:41;;;;;;;6.60;5.25;;;17.60;99.90;;;;;;4171241;28;20087;-73
2021/09/17 00:08:41;;;;;;;7.15;5.47;;;17.70;99.90;;;;;;4171470;28;20043;-73
2021/09/17 00:10:42;;;;;;;7.28;5.85;;;17.60;99.90;;;;;;4154964;28;20440;-73
2021/09/17 00:12:43;;;;;;;8.77;5.90;;;17.60;99.90;;;;;;4173082;28;20481;-73
2021/09/17 00:14:44;;;;;;;8.43;6.35;;;17.60;99.90;;;;;;4171278;28;20029;-73
2021/09/17 00:16:45;;;;;;;9.48;7.03;;;17.60;99.90;;;;;;4173540;28;20033;-73
2021/09/17 00:18:45;;;;;;;10.48;7.80;;;17.60;99.90;;;;;;4173105;28;20082;-73
2021/09/17 00:20:46;;;;;;;10.02;7.75;;;17.60;99.90;;;;;;4171511;28;20501;-73
2021/09/17 00:22:48;;;;;;;10.00;7.32;;;17.60;99.90;;;;;;4172975;28;20369;-73
2021/09/17 00:24:48;;;;;;;8.27;6.47;;;17.60;99.90;;;;;;4171312;28;20370;-73
2021/09/17 00:26:49;;;;;;;9.45;6.13;;;17.70;99.90;;;;;;4173012;28;20082;-73
2021/09/17 00:28:50;;;;;;;7.65;5.40;;;17.70;99.90;;;;;;4172849;28;20029;-73
2021/09/17 00:30:50;;;;;;;7.80;5.72;;;17.70;99.90;;;;;;4172593;28;20029;-73
2021/09/17 00:32:51;;;;;;;6.93;5.35;;;17.70;99.90;;;;;;4172474;28;20444;-73
2021/09/17 00:34:51;;;;;;;9.43;5.72;;;17.70;99.90;;;;;;4172689;28;20037;-73
2021/09/17 00:36:52;;;;;;;8.30;5.70;;;17.60;99.90;;;;;;4172680;28;20030;-73
2021/09/17 00:38:52;;;;;;;8.60;6.00;;;17.60;99.90;;;;;;4172593;28;20083;-73
2021/09/17 00:40:53;;;;;;;10.13;5.95;;;17.70;99.90;;;;;;4171149;28;20037;-73
2021/09/17 00:42:54;;;;;;;10.38;6.00;;;17.70;99.90;;;;;;4173027;28;20035;-73
2021/09/17 00:44:54;;;;;;;8.95;6.22;;;17.70;99.90;;;;;;4172870;28;20681;-73
2021/09/17 00:46:55;;;;;;;8.52;6.93;;;17.70;99.90;;;;;;4172711;28;20028;-73
2021/09/17 00:48:56;;;;;;;9.20;7.05;;;17.60;99.90;;;;;;4172887;28;20037;-73
2021/09/17 00:50:57;;;;;;;7.60;6.18;;;17.60;99.90;;;;;;4172849;28;20481;-73
2021/09/17 00:52:58;;;;;;;11.93;7.05;;;17.60;99.90;;;;;;4172588;28;20037;-73
2021/09/17 00:54:58;;;;;;;8.88;6.40;;;17.60;99.90;;;;;;4171302;28;20156;-73
2021/09/17 00:56:59;;;;;;;9.63;7.38;;;17.60;99.90;;;;;;4172802;28;20048;-73
2021/09/17 00:59:00;;;;;;;9.73;7.97;;;17.60;99.90;;;;;;4172816;28;20037;-73
2021/09/17 01:01:00;;;;;;;8.77;6.82;;;17.60;99.90;;;;;;4183314;28;20053;-73
2021/09/17 01:03:01;;;;;;;9.63;7.15;;;17.60;99.90;;;;;;4183154;28;20036;-73
2021/09/17 01:05:04;;;;;;;9.23;6.32;;;17.60;99.90;;;;;;4178566;28;20063;-74
2021/09/17 01:07:04;;;;;;;9.32;7.45;;;17.60;99.90;;;;;;4184003;28;20059;-73
2021/09/17 01:09:06;;;;;;;10.25;6.78;;;17.70;99.90;;;;;;4180502;28;20692;-73
2021/09/17 01:11:07;;;;;;;10.45;7.88;;;17.60;99.90;;;;;;4183783;28;20638;-74
2021/09/17 01:13:08;;;;;;;11.20;7.20;;;17.60;99.90;;;;;;4174150;28;20037;-73
2021/09/17 01:15:09;;;;;;;10.15;7.95;;;17.60;99.90;;;;;;4174264;28;20056;-73
2021/09/17 01:17:10;;;;;;;12.27;8.53;;;17.50;99.90;;;;;;4174805;28;20476;-73
2021/09/17 01:19:11;;;;;;;13.82;9.85;;;17.60;99.90;;;;;;4175773;28;21627;-73
2021/09/17 01:21:11;;;;;;;12.07;9.50;;;17.60;99.90;;;;;;4174618;28;20045;-73
2021/09/17 01:23:12;;;;;;;8.80;6.80;;;17.50;99.90;;;;;;4175326;28;20031;-73
2021/09/17 01:25:15;;;;;;;11.30;7.93;;;17.60;99.90;;;;;;4173685;28;20051;-73
2021/09/17 01:27:16;;;;;;;10.60;7.93;;;17.60;99.90;;;;;;4173715;28;20021;-73
2021/09/17 01:29:17;;;;;;;9.60;7.50;;;17.60;99.90;;;;;;4173604;28;20028;-73
2021/09/17 01:31:18;;;;;;;12.13;9.27;;;17.60;99.90;;;;;;4175365;28;20415;-73
2021/09/17 01:33:19;;;;;;;14.23;11.63;;;17.60;99.90;;;;;;4175099;28;20112;-73
2021/09/17 01:35:22;;;;;;;17.45;13.15;;;17.60;99.90;;;;;;4174113;28;21602;-73
2021/09/17 01:37:23;;;;;;;18.73;13.98;;;17.60;99.90;;;;;;4182496;28;20423;-73
2021/09/17 01:39:25;;;;;;;17.15;13.57;;;17.60;99.90;;;;;;4179321;28;20453;-73
2021/09/17 01:41:26;;;;;;;17.13;13.18;;;17.50;99.90;;;;;;4186711;28;20024;-73
2021/09/17 01:43:27;;;;;;;13.50;10.13;;;17.50;99.90;;;;;;4188626;28;20074;-73
2021/09/17 01:45:28;;;;;;;11.50;8.65;;;17.50;99.90;;;;;;4184995;28;20119;-73
2021/09/17 01:47:28;;;;;;;14.52;11.05;;;17.50;99.90;;;;;;4158686;28;20742;-73
2021/09/17 01:49:29;;;;;;;14.57;11.38;;;17.50;99.90;;;;;;4175570;28;20662;-73
2021/09/17 01:51:30;;;;;;;16.83;13.07;;;17.50;99.90;;;;;;4164908;28;20476;-73
2021/09/17 01:53:34;;;;;;;17.45;13.30;;;17.50;99.90;;;;;;4183531;28;20021;-73
2021/09/17 01:55:38;;;;;;;17.20;12.30;;;17.60;99.90;;;;;;4176333;28;20033;-74
2021/09/17 01:57:38;;;;;;;14.70;11.60;;;17.60;99.90;;;;;;4175333;28;20557;-73
2021/09/17 01:59:39;;;;;;;19.23;13.20;;;17.60;99.90;;;;;;4179858;28;20060;-74
2021/09/17 02:01:40;;;;;;;21.83;15.90;;;17.60;99.90;;;;;;4175781;28;20067;-74
2021/09/17 02:03:40;;;;;;;18.20;14.27;;;17.60;99.90;;;;;;4181992;28;20759;-73
2021/09/17 02:05:41;;;;;;;15.68;12.50;;;17.60;99.90;;;;;;4180285;28;20143;-74
2021/09/17 02:07:42;;;;;;;15.82;12.20;;;17.60;99.90;;;;;;4178863;28;20029;-73
2021/09/17 02:09:43;;;;;;;15.70;11.95;;;17.60;99.90;;;;;;4175420;28;20087;-73
2021/09/17 02:11:43;;;;;;;18.95;14.27;;;17.60;99.90;;;;;;4178728;28;20095;-74
2021/09/17 02:13:44;;;;;;;23.67;17.20;;;17.70;99.90;;;;;;4183390;28;20029;-74
2021/09/17 02:15:46;;;;;;;21.27;16.70;;;17.60;99.90;;;;;;4178367;28;20035;-73
2021/09/17 02:17:46;;;;;;;21.25;16.35;;;17.60;99.90;;;;;;4181857;28;20107;-74
2021/09/17 02:19:47;;;;;;;20.95;16.17;;;17.60;99.90;;;;;;4177218;28;20040;-74
2021/09/17 02:21:50;;;;;;;20.60;16.25;;;17.70;99.90;;;;;;4176917;28;20025;-73
2021/09/17 02:23:50;;;;;;;21.67;16.08;;;17.70;99.90;;;;;;4175827;28;20544;-73
2021/09/17 02:25:51;;;;;;;22.65;16.33;;;17.70;99.90;;;;;;4178857;28;20032;-74
2021/09/17 02:27:52;;;;;;;21.58;16.55;;;17.70;99.90;;;;;;4174738;28;20428;-73
2021/09/17 02:29:52;;;;;;;22.45;17.20;;;17.70;99.90;;;;;;4177234;28;20119;-74
2021/09/17 02:31:53;;;;;;;24.00;17.15;;;17.70;99.90;;;;;;4176650;28;20453;-73
2021/09/17 02:33:54;;;;;;;21.23;16.25;;;17.60;99.90;;;;;;4179536;28;20121;-73
2021/09/17 02:35:54;;;;;;;22.20;16.52;;;17.60;99.90;;;;;;4179190;28;20060;-73
2021/09/17 02:37:55;;;;;;;24.08;17.77;;;17.60;99.90;;;;;;4177021;28;20025;-74
2021/09/17 02:39:55;;;;;;;22.27;16.23;;;17.60;99.90;;;;;;4181324;28;20484;-74
2021/09/17 02:41:56;;;;;;;23.00;16.75;;;17.60;99.90;;;;;;4175840;28;20029;-73
2021/09/17 02:43:57;;;;;;;24.42;17.20;;;17.60;99.90;;;;;;4175031;28;20041;-73
2021/09/17 02:45:59;;;;;;;21.45;16.23;;;17.60;99.90;;;;;;4178679;28;20439;-74
2021/09/17 02:47:59;;;;;;;21.83;15.90;;;17.60;99.90;;;;;;4175396;28;20033;-73
2021/09/17 02:50:00;;;;;;;21.33;16.60;;;17.60;99.90;;;;;;4178328;28;20314;-73
2021/09/17 02:52:01;;;;;;;25.27;17.60;;;17.60;99.90;;;;;;4180119;28;20107;-73
2021/09/17 02:54:02;;;;;;;21.05;16.65;;;17.60;99.90;;;;;;4181374;28;20033;-74
2021/09/17 02:56:02;;;;;;;22.52;16.45;;;17.60;99.90;;;;;;4176716;28;20040;-74
2021/09/17 02:58:03;;;;;;;23.58;17.45;;;17.60;99.90;;;;;;4176416;28;20044;-73
2021/09/17 03:00:06;;;;;;;24.67;18.30;;;17.60;99.90;;;;;;4174466;28;20154;-73
2021/09/17 03:02:07;;;;;;;22.52;16.52;;;17.60;99.90;;;;;;4172354;28;20033;-74
2021/09/17 03:04:07;;;;;;;20.90;15.63;;;17.60;99.90;;;;;;4175608;28;20029;-74
2021/09/17 03:06:08;;;;;;;24.58;17.40;;;17.70;99.90;;;;;;4179555;28;20045;-73
2021/09/17 03:08:08;;;;;;;22.20;16.42;;;17.70;99.90;;;;;;4179233;28;20689;-74
2021/09/17 03:10:10;;;;;;;21.95;15.27;;;17.70;99.90;;;;;;4178983;28;20037;-74
2021/09/17 03:12:10;;;;;;;22.58;16.08;;;17.60;99.90;;;;;;4180574;28;20029;-74
2021/09/17 03:14:11;;;;;;;23.15;16.85;;;17.70;99.90;;;;;;4177302;28;20041;-73
2021/09/17 03:16:12;;;;;;;23.67;17.90;;;17.70;99.90;;;;;;4175835;28;20041;-73
2021/09/17 03:18:12;;;;;;;23.15;17.73;;;17.70;99.90;;;;;;4177001;28;20037;-74
2021/09/17 03:20:14;;;;;;;25.33;17.90;;;17.60;99.90;;;;;;4179948;28;20048;-73
2021/09/17 03:22:15;;;;;;;23.60;17.73;;;17.70;99.90;;;;;;4174544;28;20021;-73
2021/09/17 03:24:16;;;;;;;24.05;17.52;;;17.70;99.90;;;;;;4174406;28;20869;-73
2021/09/17 03:26:16;;;;;;;23.65;17.52;;;17.70;99.90;;;;;;4173650;28;20036;-73
2021/09/17 03:28:17;;;;;;;23.80;16.92;;;17.60;99.90;;;;;;4171486;28;20123;-73
2021/09/17 03:30:18;;;;;;;25.42;18.23;;;17.60;99.90;;;;;;4173507;28;20044;-74
2021/09/17 03:32:18;;;;;;;27.00;19.55;;;17.60;99.90;;;;;;4171600;28;20029;-73
2021/09/17 03:34:19;;;;;;;24.20;17.42;;;17.60;99.90;;;;;;4171852;28;20025;-73
2021/09/17 03:36:19;;;;;;;24.40;18.17;;;17.60;99.90;;;;;;4173753;28;20457;-74
2021/09/17 03:38:20;;;;;;;26.77;17.92;;;17.60;99.90;;;;;;4171479;28;20045;-73
2021/09/17 03:40:21;;;;;;;26.13;18.60;;;17.60;99.90;;;;;;4155512;28;20064;-73
2021/09/17 03:42:21;;;;;;;23.63;17.85;;;17.60;99.90;;;;;;4173591;28;20025;-74
2021/09/17 03:44:22;;;;;;;24.55;17.95;;;17.60;99.90;;;;;;4173133;28;20048;-73
2021/09/17 03:46:23;;;;;;;26.38;18.42;;;17.60;99.90;;;;;;4173385;28;20036;-73
2021/09/17 03:48:23;;;;;;;23.85;18.10;;;17.60;99.90;;;;;;4173005;28;20086;-73
2021/09/17 03:50:24;;;;;;;25.77;18.33;;;17.60;99.90;;;;;;4173275;28;20035;-73
2021/09/17 03:52:25;;;;;;;26.63;17.98;;;17.60;99.90;;;;;;4173139;28;20033;-74
2021/09/17 03:54:27;;;;;;;21.58;16.02;;;17.60;99.90;;;;;;4155363;28;20446;-73
2021/09/17 03:56:27;;;;;;;25.00;18.15;;;17.60;99.90;;;;;;4171649;28;20037;-74
2021/09/17 03:58:28;;;;;;;28.67;19.73;;;17.60;99.90;;;;;;4171556;28;20118;-74
2021/09/17 04:00:29;;;;;;;23.00;17.63;;;17.60;99.90;;;;;;4172592;28;20041;-73
2021/09/17 04:02:29;;;;;;;24.20;17.85;;;17.60;99.90;;;;;;4178566;28;20404;-74
2021/09/17 04:04:30;;;;;;;23.55;17.70;;;17.60;99.90;;;;;;4173166;28;20041;-74
2021/09/17 04:06:30;;;;;;;27.20;18.65;;;17.60;99.90;;;;;;4175311;28;20037;-73
2021/09/17 04:08:31;;;;;;;23.63;17.52;;;17.60;99.90;;;;;;4172702;28;20044;-74
2021/09/17 04:10:32;;;;;;;23.20;17.77;;;17.60;99.90;;;;;;4169360;28;20033;-73
2021/09/17 04:12:32;;;;;;;25.52;18.45;;;17.60;99.90;;;;;;4172847;28;20099;-74
2021/09/17 04:14:33;;;;;;;24.90;17.88;;;17.60;99.90;;;;;;4173068;28;20122;-74
2021/09/17 04:16:33;;;;;;;28.23;18.23;;;17.60;99.90;;;;;;4172405;28;20053;-74
2021/09/17 04:18:34;;;;;;;23.63;17.13;;;17.60;99.90;;;;;;4174277;28;20481;-73
2021/09/17 04:20:35;;;;;;;21.98;16.88;;;17.60;99.90;;;;;;4177153;28;20177;-73
2021/09/17 04:22:37;;;;;;;19.80;15.88;;;17.70;99.90;;;;;;4172783;28;20017;-74
2021/09/17 04:24:37;;;;;;;24.05;17.55;;;17.70;99.90;;;;;;4168082;28;20044;-74
2021/09/17 04:26:38;;;;;;;24.35;18.10;;;17.70;99.90;;;;;;4173122;28;20939;-74
2021/09/17 04:28:39;;;;;;;23.67;17.52;;;17.60;99.90;;;;;;4172870;28;20473;-74
2021/09/17 04:30:39;;;;;;;27.42;18.67;;;17.60;99.90;;;;;;4172103;28;20064;-74
2021/09/17 04:32:41;;;;;;;28.48;18.08;;;17.70;99.90;;;;;;4172757;28;20038;-73
2021/09/17 04:34:42;;;;;;;23.03;16.90;;;17.70;99.90;;;;;;4172883;28;20099;-73
2021/09/17 04:36:43;;;;;;;24.80;18.13;;;17.70;99.90;;;;;;4173075;28;20056;-73
2021/09/17 04:38:43;;;;;;;24.65;17.65;;;17.70;99.90;;;;;;4172534;28;20077;-73
2021/09/17 04:40:44;;;;;;;23.88;17.55;;;17.70;99.90;;;;;;4172698;28;20041;-74
2021/09/17 04:42:45;;;;;;;23.67;17.05;;;17.70;99.90;;;;;;4174776;28;20037;-74
2021/09/17 04:44:45;;;;;;;21.15;16.42;;;17.70;99.90;;;;;;4176297;28;20104;-73
2021/09/17 04:46:46;;;;;;;27.30;16.65;;;17.70;99.90;;;;;;4175398;28;20461;-74
2021/09/17 04:48:46;;;;;;;22.70;17.17;;;17.70;99.90;;;;;;4173996;28;20392;-73
2021/09/17 04:50:47;;;;;;;24.52;18.15;;;17.70;99.90;;;;;;4176225;28;20048;-73
2021/09/17 04:52:51;;;;;;;28.05;18.70;;;17.60;99.90;;;;;;4175826;28;20033;-76
2021/09/17 04:54:52;;;;;;;25.70;18.60;;;17.60;99.90;;;;;;4175563;28;20037;-76
2021/09/17 04:56:52;;;;;;;25.45;18.15;;;17.60;99.90;;;;;;4176466;28;20041;-76
2021/09/17 04:58:53;;;;;;;23.95;17.45;;;17.60;99.90;;;;;;4174483;28;20400;-76
2021/09/17 05:00:54;;;;;;;22.27;16.63;;;17.50;99.90;;;;;;4174260;28;20174;-76
2021/09/17 05:02:54;;;;;;;22.20;15.68;;;17.50;99.90;;;;;;4182789;28;20110;-76
2021/09/17 05:04:55;;;;;;;20.95;16.27;;;17.60;99.90;;;;;;4154035;28;20140;-76
2021/09/17 05:06:56;;;;;;;23.30;16.83;;;17.50;99.90;;;;;;4188525;28;20036;-76
2021/09/17 05:08:58;;;;;;;23.98;16.88;;;17.50;99.90;;;;;;4174461;28;20031;-76
2021/09/17 05:10:58;;;;;;;20.88;16.10;;;17.50;99.90;;;;;;4152351;28;20861;-76
2021/09/17 05:12:59;;;;;;;24.05;15.65;;;17.50;99.90;;;;;;4173348;28;20035;-77
2021/09/17 05:15:00;;;;;;;21.10;15.20;;;17.50;99.90;;;;;;4172709;28;20166;-76
2021/09/17 05:17:00;;;;;;;23.48;16.55;;;17.60;99.90;;;;;;4158174;28;20022;-76
2021/09/17 05:19:01;;;;;;;22.52;16.73;;;17.60;99.90;;;;;;4171620;28;20199;-76
2021/09/17 05:21:01;;;;;;;21.45;16.45;;;17.60;99.90;;;;;;4156703;28;20043;-76
2021/09/17 05:23:02;;;;;;;21.70;15.82;;;17.60;99.90;;;;;;4163342;28;20095;-76
2021/09/17 05:25:03;;;;;;;22.15;16.35;;;17.60;99.90;;;;;;4170936;28;20045;-76
2021/09/17 05:27:12;;;;;;;20.30;14.85;;;17.60;99.90;;;;;;4175492;28;20041;-76
2021/09/17 05:29:12;;;;;;;22.70;15.48;;;17.60;99.90;;;;;;4171121;28;20036;-76
2021/09/17 05:31:13;;;;;;;23.40;16.95;;;17.60;99.90;;;;;;4173556;28;20036;-76
2021/09/17 05:33:13;;;;;;;22.52;15.85;;;17.50;99.90;;;;;;4173454;28;20041;-76
2021/09/17 05:35:14;;;;;;;31.58;15.60;;;17.50;99.90;;;;;;4171911;28;20048;-76
2021/09/17 05:37:16;;;;;;;21.83;15.40;;;17.50;99.90;;;;;;4165366;28;20034;-76
2021/09/17 05:39:16;;;;;;;25.13;16.23;;;17.50;99.90;;;;;;4155206;28;21590;-77
2021/09/17 05:41:17;;;;;;;21.05;15.63;;;17.50;99.90;;;;;;4135397;28;20069;-76
2021/09/17 05:43:18;;;;;;;21.02;14.55;;;17.50;99.90;;;;;;4153727;28;20045;-77
2021/09/17 05:45:19;;;;;;;23.85;14.40;;;17.50;99.90;;;;;;4153425;28;20452;-77
2021/09/17 05:47:19;;;;;;;22.73;16.25;;;17.50;99.90;;;;;;4152342;28;20041;-76
2021/09/17 05:49:20;;;;;;;25.52;16.63;;;17.50;99.90;;;;;;4152699;28;20044;-77
2021/09/17 05:51:21;;;;;;;20.30;15.75;;;17.50;99.90;;;;;;4150214;28;20057;-76
2021/09/17 05:53:21;;;;;;;22.75;16.00;;;17.40;99.90;;;;;;4150445;28;20037;-73
2021/09/17 05:55:27;;;;;;;22.92;16.67;;;17.40;99.90;;;;;;4149814;28;20042;-74
2021/09/17 05:57:27;;;;;;;22.23;15.40;;;17.40;99.90;;;;;;4151756;28;20059;-74
2021/09/17 05:59:28;;;;;;;22.55;15.30;;;17.40;99.90;;;;;;4151079;28;20033;-74
2021/09/17 06:01:28;;;;;;;22.75;15.50;;;17.40;99.90;;;;;;4152968;28;20583;-74
2021/09/17 06:03:29;;;;;;;21.40;15.02;;;17.40;99.90;;;;;;4149023;28;20038;-74
2021/09/17 06:05:29;;;;;;;21.33;14.88;;;17.40;99.90;;;;;;4149431;28;20040;-74
2021/09/17 06:07:30;;;;;;;20.23;14.63;;;17.30;99.90;;;;;;4150965;28;20038;-74
2021/09/17 06:09:33;;;;;;;22.95;15.52;;;17.30;99.90;;;;;;4151823;28;20493;-74
2021/09/17 06:11:33;;;;;;;19.92;14.82;;;17.30;99.90;;;;;;4150727;28;20029;-74
2021/09/17 06:13:34;;;;;;;23.02;15.05;;;17.30;99.90;;;;;;4152323;28;20094;-74
2021/09/17 06:15:34;;;;;;;21.27;15.18;;;17.30;99.90;;;;;;4153145;28;20461;-74
2021/09/17 06:17:35;;;;;;;19.05;13.40;;;17.30;99.90;;;;;;4150232;28;20032;-74
2021/09/17 06:19:36;;;;;;;20.23;14.05;;;17.30;99.90;;;;;;4151949;28;20060;-74
2021/09/17 06:21:37;;;;;;;23.75;16.00;;;17.30;99.90;;;;;;4148107;28;20071;-74
2021/09/17 06:23:37;;;;;;;21.13;14.27;;;17.30;99.90;;;;;;4148671;28;20033;-74
2021/09/17 06:25:38;;;;;;;22.65;14.48;;;17.30;99.90;;;;;;4148779;28;20109;-73
2021/09/17 06:27:39;;;;;;;19.73;13.98;;;17.30;99.90;;;;;;4134046;28;20034;-73
2021/09/17 06:29:40;;;;;;;21.52;14.95;;;17.40;99.90;;;;;;4149357;28;20088;-73
2021/09/17 06:31:41;;;;;;;21.42;15.77;;;17.40;99.90;;;;;;4146888;28;20576;-74
2021/09/17 06:33:42;;;;;;;23.15;15.27;;;17.40;99.90;;;;;;4149475;28;20476;-73
2021/09/17 06:35:42;;;;;;;19.73;14.77;;;17.40;99.90;;;;;;4150791;28;20536;-74
2021/09/17 06:37:45;;;;;;;21.85;14.60;;;17.40;99.90;;;;;;4153276;28;20039;-73
2021/09/17 06:39:45;;;;;;;23.88;15.75;;;17.40;99.90;;;;;;4152543;28;20052;-74
2021/09/17 06:41:46;;;;;;;20.90;13.88;;;17.40;99.90;;;;;;4152399;28;20120;-74
2021/09/17 06:43:47;;;;;;;22.95;14.85;;;17.40;99.90;;;;;;4151475;28;20045;-73
2021/09/17 06:45:47;;;;;;;22.27;15.70;;;17.40;99.90;;;;;;4150966;28;20048;-73
2021/09/17 06:47:51;;;;;;;21.15;14.68;;;17.30;99.90;;;;;;4150221;28;20041;-74
2021/09/17 06:49:52;;;;;;;21.73;14.77;;;17.30;99.90;;;;;;4150292;28;20398;-74
2021/09/17 06:51:52;;;;;;;22.85;15.85;;;17.40;99.90;;;;;;4153153;28;20176;-73
2021/09/17 06:53:53;;;;;;;22.83;15.02;;;17.40;99.90;;;;;;4150508;28;20149;-74
2021/09/17 06:55:53;;;;;;;20.13;14.88;;;17.30;99.90;;;;;;4149787;28;20526;-73
2021/09/17 06:57:59;;;;;;;22.85;15.55;;;17.30;99.90;;;;;;4152423;28;20405;-74
2021/09/17 07:00:00;;;;;;;24.17;16.23;;;17.30;99.90;;;;;;4149651;28;20033;-74
2021/09/17 07:02:00;;;;;;;24.42;16.80;;;17.30;99.90;;;;;;4152768;28;21561;-73
2021/09/17 07:04:01;;;;;;;25.83;17.15;;;17.30;99.90;;;;;;4152111;28;20115;-73
2021/09/17 07:06:02;;;;;;;27.25;18.20;;;17.20;99.90;;;;;;4149808;28;20081;-73
2021/09/17 07:08:04;;;;;;;24.55;17.33;;;17.20;99.90;;;;;;4151993;28;20156;-74
2021/09/17 07:10:06;;;;;;;22.70;15.48;;;17.10;99.90;;;;;;4152598;28;20133;-73
2021/09/17 07:12:07;;;;;;;25.35;17.55;;;17.20;99.90;;;;;;4149193;28;20068;-73
2021/09/17 07:14:08;;;;;;;24.10;17.02;;;17.10;99.90;;;;;;4152519;28;20041;-73
2021/09/17 07:16:08;;;;;;;28.83;18.25;;;17.10;99.90;;;;;;4151590;28;20637;-74
2021/09/17 07:18:10;;;;;;;24.70;16.45;;;17.00;99.90;;;;;;4150618;28;20037;-74
2021/09/17 07:20:11;;;;;;;23.45;16.23;;;17.00;99.90;;;;;;4152876;28;20041;-73
2021/09/17 07:22:12;;;;;;;20.95;14.63;;;17.00;99.90;;;;;;4151458;28;20037;-74
2021/09/17 07:24:12;;;;;;;19.45;13.43;;;17.10;99.90;;;;;;4151947;28;20372;-73
2021/09/17 07:26:13;;;;;;;19.27;14.07;;;17.10;99.90;;;;;;4151127;28;20043;-74
2021/09/17 07:28:14;;;;;;;20.60;14.85;;;17.10;99.90;;;;;;4152501;28;20045;-73
2021/09/17 07:30:16;;;;;;;22.73;14.77;;;17.10;99.90;;;;;;4149826;28;20033;-74
2021/09/17 07:32:17;;;;;;;20.73;14.80;;;17.20;99.90;;;;;;4149923;28;20384;-74
2021/09/17 07:34:18;;;;;;;19.77;13.60;;;17.20;99.90;;;;;;4149687;28;20088;-73
2021/09/17 07:36:19;;;;;;;19.85;14.25;;;17.20;99.90;;;;;;4151827;28;20260;-74
2021/09/17 07:38:19;;;;;;;24.30;15.82;;;17.30;99.90;;;;;;4148758;28;20045;-74
2021/09/17 07:40:20;;;;;;;19.92;14.05;;;17.30;99.90;;;;;;4148200;28;20037;-73
2021/09/17 07:42:21;;;;;;;22.60;15.30;;;17.30;99.90;;;;;;4147738;28;20068;-74
2021/09/17 07:44:21;;;;;;;20.83;15.68;;;17.40;99.90;;;;;;4148935;28;20052;-74
2021/09/17 07:46:22;;;;;;;19.17;14.10;;;17.40;99.90;;;;;;4148812;28;20328;-74
2021/09/17 07:48:23;;;;;;;20.27;14.18;;;17.50;99.90;;;;;;4132658;28;20037;-73
2021/09/17 07:50:24;;;;;;;21.58;13.77;;;17.50;99.90;;;;;;4150340;28;20046;-74
2021/09/17 07:52:24;;;;;;;18.50;12.40;;;17.60;99.90;;;;;;4151058;28;20037;-74
2021/09/17 07:54:26;;;;;;;19.90;13.88;;;17.60;99.90;;;;;;4146616;28;20029;-74
2021/09/17 07:56:27;;;;;;;21.65;15.98;;;17.70;99.90;;;;;;4149769;28;20077;-74
2021/09/17 07:58:28;;;;;;;20.73;13.57;;;17.70;99.90;;;;;;4151786;28;20798;-74
2021/09/17 08:00:29;;;;;;;18.83;13.77;;;17.70;99.90;;;;;;4153386;28;20042;-73
2021/09/17 08:02:30;;;;;;;19.27;14.32;;;17.80;99.90;;;;;;4152563;28;20061;-74
2021/09/17 08:04:31;;;;;;;17.83;13.20;;;17.80;99.90;;;;;;4152014;28;20823;-73
2021/09/17 08:06:31;;;;;;;17.92;13.23;;;17.90;99.90;;;;;;4150744;28;20026;-74
2021/09/17 08:08:32;;;;;;;19.88;13.57;;;17.90;99.90;;;;;;4151018;28;20087;-73
2021/09/17 08:10:33;;;;;;;20.00;13.30;;;18.00;99.90;;;;;;4152728;28;20037;-74
2021/09/17 08:12:34;;;;;;;20.70;13.95;;;18.00;99.90;;;;;;4146719;28;20869;-74
2021/09/17 08:14:35;;;;;;;19.15;14.20;;;18.10;99.90;;;;;;4130742;28;20065;-73
2021/09/17 08:16:36;;;;;;;22.60;14.88;;;18.10;99.90;;;;;;4149769;28;20029;-73
2021/09/17 08:18:36;;;;;;;18.08;13.68;;;18.10;99.90;;;;;;4148855;28;20038;-74
2021/09/17 08:20:47;;;;;;;19.80;13.20;;;18.20;99.90;;;;;;4163096;28;20044;-73
2021/09/17 08:22:48;;;;;;;19.83;13.73;;;18.20;99.90;;;;;;4161080;28;20033;-73
2021/09/17 08:24:49;;;;;;;19.65;13.27;;;18.30;99.90;;;;;;4141348;28;20039;-73
2021/09/17 08:26:52;;;;;;;18.00;13.68;;;18.40;99.90;;;;;;4160096;28;20095;-74
2021/09/17 08:28:52;;;;;;;19.90;14.35;;;18.40;99.90;;;;;;4136717;28;20155;-74
2021/09/17 08:30:55;;;;;;;18.98;13.00;;;18.50;99.90;;;;;;4147721;28;20041;-74
2021/09/17 08:32:55;;;;;;;20.30;12.93;;;18.60;99.90;;;;;;4166463;28;20060;-73
2021/09/17 08:34:56;;;;;;;17.17;12.05;;;18.60;99.90;;;;;;4166887;28;20049;-73
2021/09/17 08:36:57;;;;;;;17.48;12.20;;;18.70;99.90;;;;;;4168933;28;20041;-73
2021/09/17 08:38:58;;;;;;;20.30;12.60;;;18.80;99.90;;;;;;4146829;28;20036;-73
2021/09/17 08:40:59;;;;;;;18.35;13.20;;;18.80;99.90;;;;;;4160651;28;20154;-73
2021/09/17 08:43:00;;;;;;;20.15;13.25;;;18.90;99.90;;;;;;4167442;28;20068;-73
2021/09/17 08:45:04;;;;;;;18.27;13.02;;;19.00;99.90;;;;;;4159510;28;20040;-73
2021/09/17 08:47:06;;;;;;;17.45;12.43;;;19.00;99.90;;;;;;4150573;28;20061;-74
2021/09/17 08:49:08;;;;;;;16.52;10.73;;;19.10;99.90;;;;;;4137672;28;20167;-73
2021/09/17 08:51:09;;;;;;;17.20;11.17;;;19.10;99.90;;;;;;4151216;28;20036;-73
2021/09/17 08:53:15;;;;;;;16.52;12.10;;;19.20;99.90;;;;;;4134824;28;20272;-73
2021/09/17 08:55:16;;;;;;;15.73;11.05;;;19.30;99.90;;;;;;4144484;28;20037;-73
2021/09/17 08:57:17;;;;;;;15.23;11.32;;;19.30;99.90;;;;;;4146815;28;20044;-73
2021/09/17 08:59:18;;;;;;;19.23;12.30;;;19.40;99.90;;;;;;4134783;28;20033;-73
2021/09/17 09:01:36;;;;;;;16.45;11.65;;;19.40;99.90;;;;;;4160377;28;20049;-74
2021/09/17 09:03:38;;;;;;;19.25;13.65;;;19.40;99.90;;;;;;4139737;28;20034;-74
2021/09/17 09:05:41;;;;;;;17.80;12.30;;;19.40;99.90;;;;;;4162969;28;20082;-74
2021/09/17 09:07:42;;;;;;;14.63;11.40;;;19.50;99.90;;;;;;4163487;28;20035;-74
2021/09/17 09:09:47;;;;;;;15.55;11.40;;;19.50;99.90;;;;;;4126777;28;20032;-73
2021/09/17 09:11:51;;;;;;;13.73;9.10;;;19.50;99.90;;;;;;4165264;28;22612;-73
2021/09/17 09:14:09;;;;;;;15.90;10.20;;;19.60;99.90;;;;;;4136247;28;20045;-74
2021/09/17 09:16:18;;;;;;;13.10;9.77;;;19.70;99.90;;;;;;4157568;28;20029;-74
2021/09/17 09:18:20;;;;;;;11.02;9.25;;;19.70;99.90;;;;;;4151114;28;20051;-74
2021/09/17 09:20:32;;;;;;;13.30;9.55;;;19.70;99.90;;;;;;4133139;28;20389;-73
2021/09/17 09:22:34;;;;;;;17.58;11.73;;;19.80;99.90;;;;;;4157347;28;24528;-74
2021/09/17 09:24:39;;;;;;;14.73;10.93;;;19.80;99.90;;;;;;4144482;28;20041;-73
2021/09/17 09:26:41;;;;;;;16.63;11.63;;;19.90;99.90;;;;;;4153081;28;20030;-74
2021/09/17 09:28:44;;;;;;;12.88;10.00;;;20.00;99.90;;;;;;4146949;28;20468;-74
2021/09/17 09:30:45;;;;;;;15.25;10.50;;;20.10;99.90;;;;;;4149576;28;20087;-74
2021/09/17 09:32:46;;;;;;;15.63;11.00;;;20.10;99.90;;;;;;4150484;28;20034;-74
2021/09/17 09:35:03;;;;;;;13.80;10.35;;;20.20;99.90;;;;;;4150355;28;20040;-74
2021/09/17 09:37:06;;;;;;;14.07;9.93;;;20.30;99.90;;;;;;4170808;28;20164;-73
2021/09/17 09:39:08;;;;;;;13.55;9.95;;;20.30;99.90;;;;;;4169033;28;20041;-73
2021/09/17 09:41:12;;;;;;;13.68;9.25;;;20.40;99.90;;;;;;4166060;28;20533;-74
2021/09/17 09:43:27;;;;;;;13.75;9.70;;;20.50;99.90;;;;;;4169232;28;20043;-74
2021/09/17 09:45:28;;;;;;;13.70;9.55;;;20.60;99.90;;;;;;4170747;28;20045;-74
2021/09/17 09:47:33;;;;;;;16.80;11.60;;;20.70;99.90;;;;;;4168869;28;20044;-74
2021/09/17 09:49:37;;;;;;;13.73;9.90;;;20.80;99.90;;;;;;4172007;28;20048;-73
2021/09/17 09:51:52;;;;;;;14.10;9.77;;;20.90;99.90;;;;;;4168632;28;20393;-74
2021/09/17 09:53:53;;;;;;;16.27;11.18;;;20.90;99.90;;;;;;4169961;28;20037;-74
2021/09/17 09:55:53;;;;;;;15.40;10.57;;;21.00;99.90;;;;;;4171852;28;20033;-73
2021/09/17 09:57:55;;;;;;;10.88;8.07;;;21.10;99.90;;;;;;4170953;28;20029;-73
2021/09/17 09:59:59;;;;;;;16.95;12.15;;;21.20;99.90;;;;;;4171321;28;20044;-74
2021/09/17 10:02:05;;;;;;;14.35;10.48;;;21.20;99.90;;;;;;4171566;28;20036;-74
2021/09/17 10:04:07;;;;;;;17.60;10.90;;;21.20;99.90;;;;;;4165117;28;20079;-74
2021/09/17 10:06:07;;;;;;;16.37;10.17;;;21.20;99.90;;;;;;4168429;28;20540;-73
2021/09/17 10:08:08;;;;;;;26.67;15.10;;;21.30;99.90;;;;;;4169473;28;20044;-74
2021/09/17 10:10:11;;;;;;;25.80;14.95;;;21.30;99.90;;;;;;4168712;28;20036;-74
2021/09/17 10:12:13;;;;;;;29.13;16.38;;;21.40;99.90;;;;;;4167190;28;20076;-74
2021/09/17 10:14:15;;;;;;;25.90;15.77;;;21.40;99.90;;;;;;4168162;28;20048;-74
2021/09/17 10:16:17;;;;;;;23.33;13.90;;;21.40;99.90;;;;;;4165420;28;20060;-74
2021/09/17 10:18:18;;;;;;;17.92;12.02;;;21.50;99.90;;;;;;4166986;28;20532;-74